SARL/AOL METAR and TAF weather

Enter ICAO airport designator
Station Type Date Time Source
SARL METAR 2019/11/15 05:00 UTC NOAA

SARL 150500Z 18012KT CAVOK 21/19 Q1012


Station Type Date Time Source
SARL Decoded METAR 2019/11/15 05:00 UTC NOAA

Paso De Los Libres Aerodrome, Argentina (SARL) 29-41S 057-09W 70M
Nov 15, 2019 - 12:00 AM EST / 2019.11.15 0500 UTC
Wind: from the S (180 degrees) at 14 MPH (12 KT):0
Visibility: greater than 7 mile(s):0
Temperature: 69 F (21 C)
Dew Point: 66 F (19 C)
Relative Humidity: 88%
Pressure (altimeter): 29.88 in. Hg (1012 hPa)
ob: SARL 150500Z 18012KT CAVOK 21/19 Q1012
cycle: 5

Station Type Date Time Source
SARL TAF UTC NOAA

Error!

Example: see airport list